Time;durP1;ratioP1;P1;durP2;ratioP2;P2;SDS_P1;SDS_P2;PMS_P1;PMS_P2;Temp;Humidity;BMP_temperature;BMP_pressure;BME280_temperature;BME280_humidity;BME280_pressure;Samples;Min_cycle;Max_cycle;Signal;HPM_P1;HPM_P2
2023/05/30 00:01:40;;;;;;;75.70;6.20;;;15.80;1.00;;;;;;4881766;29;20729;-80
2023/05/30 00:04:06;;;;;;;75.67;5.30;;;15.80;1.00;;;;;;4882978;29;20414;-80
2023/05/30 00:06:31;;;;;;;71.47;5.10;;;15.70;1.00;;;;;;4882859;29;20455;-80
2023/05/30 00:08:57;;;;;;;72.97;4.87;;;15.70;1.00;;;;;;4881913;29;20179;-81
2023/05/30 00:11:24;;;;;;;69.63;4.77;;;15.60;1.00;;;;;;4881478;29;20618;-80
2023/05/30 00:13:52;;;;;;;73.57;5.60;;;15.50;1.00;;;;;;4880914;29;20224;-81
2023/05/30 00:16:20;;;;;;;74.73;4.77;;;15.50;1.00;;;;;;4881673;29;20952;-80
2023/05/30 00:18:46;;;;;;;74.20;5.47;;;15.50;1.00;;;;;;4881340;29;20419;-80
2023/05/30 00:21:12;;;;;;;74.03;4.73;;;15.50;1.00;;;;;;4882763;29;20422;-80
2023/05/30 00:23:39;;;;;;;73.90;5.57;;;15.30;1.00;;;;;;4882269;29;20907;-80
2023/05/30 00:26:08;;;;;;;71.17;4.67;;;15.40;1.00;;;;;;4880968;29;20944;-80
2023/05/30 00:28:35;;;;;;;71.80;5.43;;;15.30;1.00;;;;;;4881055;29;20430;-80
2023/05/30 00:31:01;;;;;;;72.73;4.83;;;15.30;1.00;;;;;;4882743;29;20455;-80
2023/05/30 00:33:27;;;;;;;73.13;4.57;;;15.40;1.00;;;;;;4882558;29;20406;-80
2023/05/30 00:35:52;;;;;;;67.47;4.27;;;15.40;1.00;;;;;;4881405;29;20168;-81
2023/05/30 00:38:18;;;;;;;71.57;4.87;;;15.40;1.00;;;;;;4882713;29;20210;-83
2023/05/30 00:40:44;;;;;;;74.67;5.40;;;15.30;1.00;;;;;;4882316;29;20173;-81
2023/05/30 00:43:12;;;;;;;70.07;4.90;;;15.30;1.00;;;;;;4882986;29;20173;-80
2023/05/30 00:45:38;;;;;;;69.10;4.60;;;15.30;1.00;;;;;;4882252;29;20477;-81
2023/05/30 00:48:04;;;;;;;68.77;5.13;;;15.20;1.00;;;;;;4880670;29;20524;-80
2023/05/30 00:50:32;;;;;;;72.40;4.87;;;15.20;1.00;;;;;;4882141;29;20455;-80
2023/05/30 00:52:59;;;;;;;70.77;5.23;;;15.00;1.00;;;;;;4881682;29;20413;-80
2023/05/30 00:55:26;;;;;;;71.30;4.40;;;14.90;1.00;;;;;;4882555;29;20407;-80
2023/05/30 00:57:52;;;;;;;73.50;4.70;;;15.00;1.00;;;;;;4880856;29;20436;-81
2023/05/30 01:00:19;;;;;;;70.57;4.63;;;15.00;1.00;;;;;;4882633;29;20414;-80
2023/05/30 01:02:46;;;;;;;67.97;4.60;;;15.00;1.00;;;;;;4882040;29;20412;-81
2023/05/30 01:05:14;;;;;;;75.93;4.70;;;14.90;1.00;;;;;;4880814;29;20429;-80
2023/05/30 01:07:44;;;;;;;69.33;5.00;;;14.80;1.00;;;;;;4882013;29;20476;-80
2023/05/30 01:10:15;;;;;;;69.47;4.80;;;14.80;1.00;;;;;;4880564;29;20460;-80
2023/05/30 01:13:07;;;;;;;68.90;4.40;;;14.80;1.00;;;;;;4881860;29;20476;-80
2023/05/30 01:15:50;;;;;;;69.77;4.80;;;14.70;1.00;;;;;;4880753;29;20495;-80
2023/05/30 01:18:48;;;;;;;68.30;4.23;;;14.60;1.00;;;;;;4881947;29;20452;-80
2023/05/30 01:21:16;;;;;;;73.40;4.43;;;14.60;1.00;;;;;;4871136;29;20514;-80
2023/05/30 01:23:49;;;;;;;70.10;4.47;;;14.40;1.00;;;;;;4882606;29;20443;-80
2023/05/30 01:26:47;;;;;;;68.80;3.70;;;14.30;1.00;;;;;;4884247;29;20432;-81
2023/05/30 01:29:20;;;;;;;71.23;4.00;;;14.30;1.00;;;;;;4884872;29;20415;-80
2023/05/30 01:31:47;;;;;;;68.10;4.07;;;14.30;1.00;;;;;;4885721;29;20385;-81
2023/05/30 01:34:16;;;;;;;71.17;3.93;;;14.30;1.00;;;;;;4883921;29;20447;-80
2023/05/30 01:36:42;;;;;;;69.20;3.80;;;14.30;1.00;;;;;;4884437;29;20491;-80
2023/05/30 01:39:09;;;;;;;74.93;4.50;;;14.30;1.00;;;;;;4885311;29;20414;-80
2023/05/30 01:41:58;;;;;;;68.93;4.03;;;14.40;1.00;;;;;;4885805;29;20718;-81
2023/05/30 01:44:48;;;;;;;71.17;4.27;;;14.40;1.00;;;;;;4885474;29;20507;-80
2023/05/30 01:47:26;;;;;;;73.90;4.20;;;14.30;1.00;;;;;;4885026;29;20550;-81
2023/05/30 01:50:04;;;;;;;70.00;4.60;;;14.30;1.00;;;;;;4885690;29;20458;-80
2023/05/30 01:52:34;;;;;;;72.23;4.50;;;14.30;1.00;;;;;;4885816;29;20423;-81
2023/05/30 01:55:04;;;;;;;70.70;4.43;;;14.20;1.00;;;;;;4885259;29;20408;-80
2023/05/30 01:57:30;;;;;;;73.90;5.87;;;14.20;1.00;;;;;;4885393;29;20432;-81
2023/05/30 01:59:58;;;;;;;69.30;4.60;;;14.10;1.00;;;;;;4885603;29;20470;-80
2023/05/30 02:02:24;;;;;;;68.67;4.77;;;14.10;1.00;;;;;;4885244;29;20464;-81
2023/05/30 02:04:50;;;;;;;74.00;4.57;;;14.10;1.00;;;;;;4883779;29;20420;-81
2023/05/30 02:07:16;;;;;;;69.03;4.57;;;14.00;1.00;;;;;;4885089;29;20435;-81
2023/05/30 02:09:42;;;;;;;69.80;4.87;;;13.90;1.00;;;;;;4885012;29;20214;-81
2023/05/30 02:12:08;;;;;;;74.63;4.20;;;13.90;1.00;;;;;;4884724;29;20448;-80
2023/05/30 02:14:35;;;;;;;74.53;5.13;;;13.90;1.00;;;;;;4885212;29;20410;-80
2023/05/30 02:17:02;;;;;;;72.00;4.63;;;13.90;1.00;;;;;;4883405;29;20436;-81
2023/05/30 02:19:28;;;;;;;71.37;5.27;;;13.70;1.00;;;;;;4883889;29;20419;-81
2023/05/30 02:21:54;;;;;;;72.33;5.20;;;13.80;1.00;;;;;;4883303;29;20419;-81
2023/05/30 02:24:21;;;;;;;75.93;4.30;;;13.80;1.00;;;;;;4884940;29;20439;-80
2023/05/30 02:26:47;;;;;;;73.17;5.10;;;13.80;1.00;;;;;;4883308;29;20190;-81
2023/05/30 02:29:12;;;;;;;72.27;5.70;;;13.60;1.00;;;;;;4883152;29;20423;-81
2023/05/30 02:31:38;;;;;;;73.60;6.97;;;13.70;1.00;;;;;;4883389;29;20177;-81
2023/05/30 02:34:04;;;;;;;74.27;5.60;;;13.70;1.00;;;;;;4884684;29;20647;-81
2023/05/30 02:36:30;;;;;;;72.13;5.30;;;13.70;1.00;;;;;;4883986;29;20191;-81
2023/05/30 02:38:56;;;;;;;72.03;6.00;;;13.70;1.00;;;;;;4883105;29;20655;-80
2023/05/30 02:41:22;;;;;;;71.17;5.40;;;13.60;1.00;;;;;;4882920;29;20422;-81
2023/05/30 02:43:49;;;;;;;72.40;5.50;;;13.50;1.00;;;;;;4884277;29;20167;-81
2023/05/30 02:46:15;;;;;;;74.60;6.10;;;13.50;1.00;;;;;;4882750;29;20801;-81
2023/05/30 02:48:41;;;;;;;71.07;5.50;;;13.40;1.00;;;;;;4884262;29;20450;-81
2023/05/30 02:51:07;;;;;;;70.17;5.17;;;13.40;1.00;;;;;;4884318;29;20958;-81
2023/05/30 02:53:33;;;;;;;71.77;5.80;;;13.50;1.00;;;;;;4884124;29;20636;-81
2023/05/30 02:55:58;;;;;;;69.33;5.20;;;13.40;1.00;;;;;;4884319;29;20246;-81
2023/05/30 02:58:24;;;;;;;69.53;4.83;;;13.50;1.00;;;;;;4882677;29;20437;-81
2023/05/30 03:00:50;;;;;;;71.53;5.30;;;13.50;1.00;;;;;;4884436;29;20178;-81
2023/05/30 03:03:17;;;;;;;72.27;5.80;;;13.50;1.00;;;;;;4884440;29;20539;-81
2023/05/30 03:05:46;;;;;;;69.63;5.63;;;13.40;1.00;;;;;;4884155;29;20415;-81
2023/05/30 03:08:12;;;;;;;70.70;4.77;;;13.30;1.00;;;;;;4882645;29;20428;-81
2023/05/30 03:10:38;;;;;;;72.83;4.83;;;13.20;1.00;;;;;;4883750;29;20486;-81
2023/05/30 03:13:03;;;;;;;73.27;4.67;;;13.20;1.00;;;;;;4884309;29;20175;-81
2023/05/30 03:15:30;;;;;;;71.47;4.80;;;13.30;1.00;;;;;;4883817;29;20677;-81
2023/05/30 03:17:57;;;;;;;71.13;4.87;;;13.20;1.00;;;;;;4883897;29;20193;-81
2023/05/30 03:20:23;;;;;;;67.80;4.10;;;13.10;1.00;;;;;;4882145;29;20529;-81
2023/05/30 03:22:49;;;;;;;69.37;4.53;;;13.00;1.00;;;;;;4883493;29;20418;-81
2023/05/30 03:25:15;;;;;;;71.53;4.60;;;13.10;1.00;;;;;;4882049;29;20426;-80
2023/05/30 03:27:41;;;;;;;69.13;4.30;;;12.90;1.00;;;;;;4883766;29;20434;-80
2023/05/30 03:30:07;;;;;;;71.07;3.83;;;12.80;1.00;;;;;;4882121;29;20681;-81
2023/05/30 03:32:33;;;;;;;71.23;4.23;;;12.90;1.00;;;;;;4882124;29;20419;-81
2023/05/30 03:34:58;;;;;;;74.83;4.90;;;12.90;1.00;;;;;;4883598;29;20407;-81
2023/05/30 03:37:24;;;;;;;73.87;4.47;;;12.90;1.00;;;;;;4882043;29;20209;-80
2023/05/30 03:39:50;;;;;;;73.10;4.73;;;13.00;1.00;;;;;;4882132;29;20258;-80
2023/05/30 03:42:15;;;;;;;74.63;4.20;;;12.90;1.00;;;;;;4883069;29;20173;-81
2023/05/30 03:44:41;;;;;;;73.37;5.73;;;13.00;1.00;;;;;;4882942;29;20524;-81
2023/05/30 03:47:07;;;;;;;75.43;4.60;;;12.80;1.00;;;;;;4881113;29;20250;-81
2023/05/30 03:49:32;;;;;;;76.00;4.20;;;12.80;1.00;;;;;;4881905;29;20206;-81
2023/05/30 03:51:58;;;;;;;72.67;4.40;;;12.90;1.00;;;;;;4882120;29;20202;-81
2023/05/30 03:54:24;;;;;;;70.37;3.87;;;12.90;1.00;;;;;;4883043;29;20185;-81
2023/05/30 03:56:49;;;;;;;74.27;4.40;;;12.90;1.00;;;;;;4882802;29;20191;-81
2023/05/30 03:59:15;;;;;;;74.03;4.97;;;12.90;1.00;;;;;;4883513;29;20181;-81
2023/05/30 04:01:41;;;;;;;69.87;3.90;;;12.70;1.00;;;;;;4882947;29;20175;-81
2023/05/30 04:04:07;;;;;;;74.27;5.90;;;12.70;1.00;;;;;;4882558;29;20419;-81
2023/05/30 04:06:36;;;;;;;72.47;4.63;;;12.90;1.00;;;;;;4882884;29;20190;-81
2023/05/30 04:09:03;;;;;;;74.87;5.10;;;12.80;1.00;;;;;;4882494;29;20190;-81
2023/05/30 04:11:29;;;;;;;74.60;4.93;;;12.90;1.00;;;;;;4881588;29;20462;-81
2023/05/30 04:13:55;;;;;;;70.87;4.40;;;12.90;1.00;;;;;;4881557;29;20425;-81
2023/05/30 04:16:21;;;;;;;71.40;4.87;;;12.90;1.00;;;;;;4883201;29;20529;-80
2023/05/30 04:18:47;;;;;;;68.63;5.23;;;12.70;1.00;;;;;;4882767;29;20209;-81
2023/05/30 04:21:13;;;;;;;76.03;5.30;;;12.70;1.00;;;;;;4882597;29;20265;-81
2023/05/30 04:23:42;;;;;;;70.50;5.30;;;12.80;1.00;;;;;;4883013;29;20411;-81
2023/05/30 04:26:09;;;;;;;79.80;5.80;;;12.90;1.00;;;;;;4881164;29;20439;-81
2023/05/30 04:28:42;;;;;;;67.57;5.50;;;12.90;1.00;;;;;;4883068;29;20776;-81
2023/05/30 04:31:08;;;;;;;70.70;6.37;;;12.90;1.00;;;;;;4882622;29;20466;-80
2023/05/30 04:33:35;;;;;;;74.67;6.53;;;12.80;1.00;;;;;;4882144;29;20825;-81
2023/05/30 04:36:10;;;;;;;81.20;6.73;;;12.90;1.00;;;;;;4881850;29;20775;-81
2023/05/30 04:38:37;;;;;;;73.63;5.93;;;13.00;1.00;;;;;;4883426;29;20777;-81
2023/05/30 04:41:04;;;;;;;69.30;6.20;;;13.20;1.00;;;;;;4883166;29;20407;-81
2023/05/30 04:43:30;;;;;;;73.10;6.50;;;13.30;1.00;;;;;;4883024;29;20776;-81
2023/05/30 04:46:00;;;;;;;71.47;6.47;;;13.50;1.00;;;;;;4881350;29;20443;-81
2023/05/30 04:48:28;;;;;;;78.20;5.93;;;13.60;1.00;;;;;;4881724;29;20555;-81
2023/05/30 04:50:54;;;;;;;77.07;6.97;;;13.80;1.00;;;;;;4882491;29;20454;-81
2023/05/30 04:53:21;;;;;;;73.03;5.90;;;14.00;1.00;;;;;;4881165;29;20430;-81
2023/05/30 04:55:47;;;;;;;74.60;5.93;;;14.20;1.00;;;;;;4880940;29;20419;-81
2023/05/30 04:58:13;;;;;;;74.80;5.40;;;14.30;1.00;;;;;;4882313;29;20412;-81
2023/05/30 05:00:40;;;;;;;72.83;6.30;;;14.50;1.00;;;;;;4881474;29;20785;-81
2023/05/30 05:03:07;;;;;;;75.63;5.37;;;14.40;1.00;;;;;;4880992;29;20450;-81
2023/05/30 05:05:33;;;;;;;72.37;6.03;;;14.20;1.00;;;;;;4882526;29;20416;-81
2023/05/30 05:07:59;;;;;;;73.77;6.23;;;14.20;1.00;;;;;;4880819;29;20454;-81
2023/05/30 05:10:26;;;;;;;71.00;6.40;;;14.10;1.00;;;;;;4882174;29;20479;-81
2023/05/30 05:12:51;;;;;;;80.37;8.10;;;14.10;1.00;;;;;;4881781;29;20775;-80
2023/05/30 05:15:17;;;;;;;84.03;8.67;;;13.90;1.00;;;;;;4882421;29;20411;-81
2023/05/30 05:17:43;;;;;;;70.33;7.40;;;14.00;1.00;;;;;;4881965;29;20195;-81
2023/05/30 05:20:09;;;;;;;72.80;8.40;;;13.90;1.00;;;;;;4882204;29;20670;-81
2023/05/30 05:22:35;;;;;;;78.50;8.33;;;13.90;1.00;;;;;;4880991;29;20427;-81
2023/05/30 05:25:02;;;;;;;74.20;7.80;;;13.70;1.00;;;;;;4882533;29;20914;-81
2023/05/30 05:27:28;;;;;;;79.27;8.13;;;13.60;1.00;;;;;;4882029;29;20442;-81
2023/05/30 05:29:54;;;;;;;78.10;7.60;;;13.70;1.00;;;;;;4881611;29;20820;-81
2023/05/30 05:32:19;;;;;;;72.17;7.47;;;13.60;1.00;;;;;;4882454;29;20471;-81
2023/05/30 05:34:45;;;;;;;76.83;8.10;;;13.60;1.00;;;;;;4882043;29;20169;-81
2023/05/30 05:37:11;;;;;;;77.13;7.40;;;13.50;1.00;;;;;;4881524;29;20526;-81
2023/05/30 05:39:37;;;;;;;77.77;7.50;;;13.50;1.00;;;;;;4880627;29;20178;-81
2023/05/30 05:42:02;;;;;;;77.67;8.83;;;13.50;1.00;;;;;;4881520;29;20202;-81
2023/05/30 05:44:29;;;;;;;79.97;8.47;;;13.50;1.00;;;;;;4880267;29;20559;-80
2023/05/30 05:46:55;;;;;;;82.83;9.17;;;13.50;1.00;;;;;;4880676;29;20443;-81
2023/05/30 05:49:21;;;;;;;82.70;9.30;;;13.30;1.00;;;;;;4881494;29;20411;-80
2023/05/30 05:51:47;;;;;;;71.17;8.73;;;13.40;1.00;;;;;;4881607;29;20412;-80
2023/05/30 05:54:12;;;;;;;79.43;9.47;;;13.30;1.00;;;;;;4882412;29;20194;-81
2023/05/30 05:56:38;;;;;;;84.30;11.20;;;13.40;1.00;;;;;;4881837;29;20556;-80
2023/05/30 05:59:04;;;;;;;71.67;9.53;;;13.20;1.00;;;;;;4882085;29;20182;-80
2023/05/30 06:01:29;;;;;;;78.47;10.60;;;13.30;1.00;;;;;;4881694;29;20182;-81
2023/05/30 06:03:55;;;;;;;74.80;9.60;;;13.40;1.00;;;;;;4881402;29;20175;-80
2023/05/30 06:06:21;;;;;;;88.53;10.70;;;13.30;1.00;;;;;;4880498;29;20198;-81
2023/05/30 06:08:46;;;;;;;78.10;8.73;;;13.40;1.00;;;;;;4881502;29;20318;-80
2023/05/30 06:11:13;;;;;;;74.67;9.00;;;13.40;1.00;;;;;;4881953;29;20683;-81
2023/05/30 06:13:40;;;;;;;78.80;9.53;;;13.50;1.00;;;;;;4884665;29;20181;-81
2023/05/30 06:16:06;;;;;;;75.87;8.30;;;13.60;1.00;;;;;;4883566;29;21018;-80
2023/05/30 06:18:31;;;;;;;75.43;9.13;;;13.60;1.00;;;;;;4883807;29;20426;-80
2023/05/30 06:20:57;;;;;;;80.60;10.27;;;13.60;1.00;;;;;;4885214;29;20522;-81
2023/05/30 06:23:23;;;;;;;75.00;10.00;;;13.50;1.00;;;;;;4884075;29;20255;-81
2023/05/30 06:25:48;;;;;;;74.67;8.73;;;13.40;1.00;;;;;;4884575;29;20257;-81
2023/05/30 06:28:14;;;;;;;79.03;9.43;;;13.50;1.00;;;;;;4885016;29;20179;-82
2023/05/30 06:30:40;;;;;;;75.10;9.80;;;13.60;1.00;;;;;;4883987;29;20675;-81
2023/05/30 06:33:05;;;;;;;79.03;10.80;;;13.70;1.00;;;;;;4884834;29;20223;-81
2023/05/30 06:35:31;;;;;;;75.10;10.07;;;13.70;1.00;;;;;;4885500;29;20187;-81
2023/05/30 06:37:57;;;;;;;79.70;11.20;;;13.80;1.00;;;;;;4885913;29;20681;-82
2023/05/30 06:40:22;;;;;;;74.33;11.30;;;13.80;1.00;;;;;;4885295;29;20181;-81
2023/05/30 06:42:48;;;;;;;75.13;10.60;;;13.80;1.00;;;;;;4886725;29;20673;-81
2023/05/30 06:45:14;;;;;;;78.80;10.53;;;13.70;1.00;;;;;;4884854;29;20190;-82
2023/05/30 06:47:40;;;;;;;81.27;11.77;;;13.80;1.00;;;;;;4884518;29;20201;-81
2023/05/30 06:50:07;;;;;;;72.57;10.27;;;13.90;1.00;;;;;;4885929;29;20458;-81
2023/05/30 06:52:33;;;;;;;81.80;10.50;;;14.00;1.00;;;;;;4885261;29;20166;-81
2023/05/30 06:54:59;;;;;;;73.93;10.60;;;13.90;1.00;;;;;;4885559;29;20418;-81
2023/05/30 06:57:25;;;;;;;79.10;11.37;;;14.00;1.00;;;;;;4886541;29;20190;-81
2023/05/30 06:59:51;;;;;;;78.13;11.73;;;14.00;1.00;;;;;;4885559;29;20172;-81
2023/05/30 07:02:16;;;;;;;80.47;11.43;;;14.20;1.00;;;;;;4886109;29;20486;-81
2023/05/30 07:04:42;;;;;;;74.60;10.53;;;14.10;1.00;;;;;;4885952;29;20261;-81
2023/05/30 07:07:09;;;;;;;75.83;9.17;;;14.10;1.00;;;;;;4885258;29;20577;-81
2023/05/30 07:09:34;;;;;;;78.40;10.53;;;14.00;1.00;;;;;;4885532;29;20261;-81
2023/05/30 07:12:00;;;;;;;84.53;10.57;;;14.00;1.00;;;;;;4886168;29;20821;-81
2023/05/30 07:14:26;;;;;;;72.60;11.50;;;13.90;1.00;;;;;;4885546;29;20144;-81
2023/05/30 07:16:52;;;;;;;79.67;9.80;;;14.10;1.00;;;;;;4885937;29;20275;-81
2023/05/30 07:19:18;;;;;;;76.50;9.27;;;14.10;1.00;;;;;;4886243;29;20584;-81
2023/05/30 07:21:43;;;;;;;73.07;10.90;;;14.10;1.00;;;;;;4885637;29;20409;-81
2023/05/30 07:24:09;;;;;;;73.47;10.40;;;14.10;1.00;;;;;;4884325;29;20163;-81
2023/05/30 07:26:35;;;;;;;78.27;9.00;;;14.20;1.00;;;;;;4885607;29;20202;-81
2023/05/30 07:29:01;;;;;;;74.53;9.53;;;14.20;1.00;;;;;;4886220;29;20170;-81
2023/05/30 07:31:27;;;;;;;74.43;10.30;;;14.20;1.00;;;;;;4885989;29;20515;-81
2023/05/30 07:33:53;;;;;;;74.20;9.37;;;14.30;1.00;;;;;;4886386;29;20443;-81
2023/05/30 07:36:19;;;;;;;76.67;9.13;;;14.40;1.00;;;;;;4886361;29;20261;-82
2023/05/30 07:38:44;;;;;;;76.10;11.47;;;14.30;1.00;;;;;;4887507;29;20231;-82
2023/05/30 07:41:10;;;;;;;86.00;12.60;;;14.40;1.00;;;;;;4886171;29;20439;-82
2023/05/30 07:43:36;;;;;;;76.80;12.93;;;14.40;1.00;;;;;;4885558;29;20178;-81
2023/05/30 07:46:01;;;;;;;78.93;12.50;;;14.40;1.00;;;;;;4884853;29;20191;-81
2023/05/30 07:48:27;;;;;;;74.50;11.40;;;14.50;1.00;;;;;;4884763;29;20230;-81
2023/05/30 07:50:53;;;;;;;76.30;12.03;;;14.60;1.00;;;;;;4884818;29;20195;-81
2023/05/30 07:53:18;;;;;;;82.30;13.33;;;14.70;1.00;;;;;;4883316;29;20172;-81
2023/05/30 07:55:46;;;;;;;77.90;12.10;;;14.60;1.00;;;;;;4885336;29;20214;-82
2023/05/30 07:58:11;;;;;;;75.80;13.10;;;14.50;1.00;;;;;;4884175;29;20182;-81
2023/05/30 08:00:37;;;;;;;84.80;11.40;;;14.70;1.00;;;;;;4884880;29;20392;-82
2023/05/30 08:03:03;;;;;;;77.43;12.03;;;14.70;1.00;;;;;;4882357;29;20219;-81
2023/05/30 08:05:28;;;;;;;76.07;11.73;;;14.80;1.00;;;;;;4883929;29;20160;-81
2023/05/30 08:07:54;;;;;;;82.33;13.10;;;14.90;1.00;;;;;;4884086;29;20739;-81
2023/05/30 08:10:20;;;;;;;78.67;12.17;;;14.90;1.00;;;;;;4883328;29;20202;-81
2023/05/30 08:12:46;;;;;;;72.70;10.97;;;14.90;1.00;;;;;;4884698;29;20546;-81
2023/05/30 08:15:11;;;;;;;89.50;12.47;;;14.80;1.00;;;;;;4885275;29;20167;-81
2023/05/30 08:17:40;;;;;;;77.10;13.70;;;15.00;1.00;;;;;;4885278;29;20431;-81
2023/05/30 08:20:08;;;;;;;79.87;12.30;;;15.10;1.00;;;;;;4887275;29;20151;-81
2023/05/30 08:22:34;;;;;;;74.13;14.57;;;15.20;1.00;;;;;;4886941;29;20458;-80
2023/05/30 08:25:00;;;;;;;82.13;15.53;;;15.10;1.00;;;;;;4885328;29;20420;-81
2023/05/30 08:27:31;;;;;;;76.40;13.77;;;15.20;1.00;;;;;;4886182;29;20431;-81
2023/05/30 08:29:57;;;;;;;78.67;13.70;;;15.20;1.00;;;;;;4884929;29;20199;-81
2023/05/30 08:32:23;;;;;;;77.27;14.90;;;15.20;1.00;;;;;;4886613;29;20403;-81
2023/05/30 08:34:49;;;;;;;76.33;12.57;;;15.20;1.00;;;;;;4882888;29;20411;-81
2023/05/30 08:37:15;;;;;;;81.77;14.27;;;15.30;1.00;;;;;;4883658;29;20203;-81
2023/05/30 08:39:40;;;;;;;74.90;12.20;;;15.40;1.00;;;;;;4884622;29;20482;-81
2023/05/30 08:42:06;;;;;;;86.77;14.43;;;15.40;1.00;;;;;;4882490;29;20425;-81
2023/05/30 08:44:32;;;;;;;78.57;14.17;;;15.30;1.00;;;;;;4884228;29;20180;-81
2023/05/30 08:46:59;;;;;;;83.97;13.60;;;15.30;1.00;;;;;;4883586;29;20493;-81
2023/05/30 08:49:29;;;;;;;78.87;12.77;;;15.40;1.00;;;;;;4882519;29;20423;-81
2023/05/30 08:51:58;;;;;;;83.23;11.67;;;15.60;1.00;;;;;;4884223;29;20401;-81
2023/05/30 08:54:31;;;;;;;77.77;11.27;;;15.60;1.00;;;;;;4883946;29;20412;-81
2023/05/30 08:57:06;;;;;;;87.03;13.20;;;15.60;1.00;;;;;;4885212;29;20434;-80
2023/05/30 08:59:32;;;;;;;85.23;13.63;;;15.70;1.00;;;;;;4883995;29;20449;-81
2023/05/30 09:01:59;;;;;;;76.43;14.63;;;15.90;1.00;;;;;;4884468;29;20388;-81
2023/05/30 09:04:25;;;;;;;74.70;12.07;;;16.00;1.00;;;;;;4886366;29;20176;-81
2023/05/30 09:06:52;;;;;;;80.93;12.00;;;16.00;1.00;;;;;;4884418;29;20445;-81
2023/05/30 09:09:21;;;;;;;77.73;12.27;;;16.10;1.00;;;;;;4883623;29;20455;-80
2023/05/30 09:11:47;;;;;;;80.10;11.40;;;16.20;1.00;;;;;;4884823;29;20485;-81
2023/05/30 09:14:12;;;;;;;73.60;9.77;;;16.30;1.00;;;;;;4884664;29;20422;-81
2023/05/30 09:16:38;;;;;;;76.63;8.87;;;16.50;1.00;;;;;;4883417;29;20431;-80
2023/05/30 09:19:04;;;;;;;75.13;7.63;;;16.70;1.00;;;;;;4882617;29;20204;-81
2023/05/30 09:21:31;;;;;;;76.07;8.50;;;16.80;1.00;;;;;;4884184;29;20580;-81
2023/05/30 09:24:03;;;;;;;78.87;9.63;;;16.70;1.00;;;;;;4883840;29;20398;-81
2023/05/30 09:26:28;;;;;;;74.97;8.10;;;16.90;1.00;;;;;;4883566;29;20450;-80
2023/05/30 09:28:54;;;;;;;74.30;8.13;;;17.10;1.00;;;;;;4882728;29;20423;-81
2023/05/30 09:31:22;;;;;;;75.00;8.00;;;17.20;1.00;;;;;;4882689;29;20190;-81
2023/05/30 09:33:52;;;;;;;85.17;8.17;;;17.30;1.00;;;;;;4884931;29;20218;-81
2023/05/30 09:36:26;;;;;;;73.83;6.90;;;17.40;1.00;;;;;;4884937;29;20441;-81
2023/05/30 09:39:04;;;;;;;75.77;7.00;;;17.40;1.00;;;;;;4883776;29;20791;-81
2023/05/30 09:41:29;;;;;;;77.87;7.30;;;17.50;1.00;;;;;;4885097;29;20407;-80
2023/05/30 09:43:56;;;;;;;76.90;7.80;;;17.70;1.00;;;;;;4883725;29;20434;-80
2023/05/30 09:46:23;;;;;;;76.63;8.30;;;17.60;1.00;;;;;;4948299;23;20500;-81
2023/05/30 09:48:50;;;;;;;82.77;8.60;;;17.70;1.00;;;;;;4884590;29;20404;-81
2023/05/30 09:51:17;;;;;;;79.03;7.13;;;17.80;1.00;;;;;;4884598;29;20928;-78
2023/05/30 09:54:02;;;;;;;76.10;6.80;;;18.00;1.00;;;;;;4883041;29;20423;-78
2023/05/30 09:56:32;;;;;;;74.93;7.70;;;18.20;1.00;;;;;;4883652;29;20427;-78
2023/05/30 09:59:02;;;;;;;78.97;7.13;;;18.20;1.00;;;;;;4883833;29;20434;-78
2023/05/30 10:01:35;;;;;;;77.27;7.57;;;18.40;1.00;;;;;;4882363;29;20494;-78
2023/05/30 10:04:01;;;;;;;75.30;6.60;;;18.30;1.00;;;;;;4883955;29;20419;-78
2023/05/30 10:06:27;;;;;;;72.70;6.33;;;18.50;1.00;;;;;;4882228;29;20439;-78
2023/05/30 10:08:53;;;;;;;82.80;7.43;;;18.60;1.00;;;;;;4883795;29;20254;-79
2023/05/30 10:11:19;;;;;;;75.37;7.63;;;18.80;1.00;;;;;;4883343;29;20522;-78
2023/05/30 10:13:44;;;;;;;74.37;7.60;;;18.90;1.00;;;;;;4883509;29;20448;-78
2023/05/30 10:16:14;;;;;;;77.60;6.87;;;19.10;1.00;;;;;;4884326;29;20427;-78
2023/05/30 10:18:50;;;;;;;76.83;7.00;;;19.40;1.00;;;;;;4884241;29;20170;-79
2023/05/30 10:21:20;;;;;;;75.20;6.43;;;19.60;1.00;;;;;;4885432;29;20415;-78
2023/05/30 10:23:47;;;;;;;85.30;7.57;;;19.50;1.00;;;;;;4883910;29;20555;-79
2023/05/30 10:26:14;;;;;;;82.10;7.97;;;19.50;1.00;;;;;;4884290;29;20947;-79
2023/05/30 10:28:42;;;;;;;80.90;6.83;;;19.60;1.00;;;;;;4885168;29;20384;-79
2023/05/30 10:31:12;;;;;;;77.00;7.80;;;19.70;1.00;;;;;;4883506;29;20975;-77
2023/05/30 10:33:41;;;;;;;74.97;6.90;;;19.80;1.00;;;;;;4882162;29;20408;-78
2023/05/30 10:36:08;;;;;;;76.30;6.90;;;20.10;1.00;;;;;;4883723;29;20845;-79
2023/05/30 10:38:44;;;;;;;74.40;7.37;;;20.10;1.00;;;;;;4887938;29;20522;-81
2023/05/30 10:41:24;;;;;;;74.83;7.30;;;20.50;1.00;;;;;;4883232;29;20435;-82
2023/05/30 10:44:14;;;;;;;78.07;7.10;;;20.40;1.00;;;;;;4884862;29;20392;-83
2023/05/30 10:47:17;;;;;;;80.47;7.80;;;20.40;1.00;;;;;;4883614;29;20470;-82
2023/05/30 10:49:46;;;;;;;80.20;7.30;;;20.30;1.00;;;;;;4885597;29;20409;-82
2023/05/30 10:52:11;;;;;;;75.83;6.60;;;20.20;1.00;;;;;;4885326;29;20412;-80
2023/05/30 10:54:37;;;;;;;75.10;7.50;;;20.20;1.00;;;;;;4885790;29;20469;-79
2023/05/30 10:57:20;;;;;;;75.17;8.73;;;20.20;1.00;;;;;;4886540;29;20191;-79
2023/05/30 10:59:46;;;;;;;77.87;6.90;;;20.50;1.00;;;;;;4885702;29;20817;-80
2023/05/30 11:02:20;;;;;;;79.73;7.23;;;20.80;1.00;;;;;;4887066;29;20414;-79
2023/05/30 11:04:50;;;;;;;76.47;6.17;;;21.10;1.00;;;;;;4884538;29;20415;-79
2023/05/30 11:07:17;;;;;;;74.93;6.50;;;20.90;1.00;;;;;;4884316;29;20444;-79
2023/05/30 11:10:06;;;;;;;73.10;6.13;;;21.00;1.00;;;;;;4883741;29;20820;-80
2023/05/30 11:12:32;;;;;;;78.80;6.57;;;21.10;1.00;;;;;;4882803;29;20488;-79
2023/05/30 11:14:59;;;;;;;75.57;5.63;;;21.00;1.00;;;;;;4885368;29;20462;-79
2023/05/30 11:17:34;;;;;;;74.87;6.17;;;21.00;1.00;;;;;;4884459;29;20195;-78
2023/05/30 11:20:16;;;;;;;77.33;6.50;;;21.10;1.00;;;;;;4884456;29;20403;-79
2023/05/30 11:23:16;;;;;;;78.60;6.20;;;21.40;1.00;;;;;;4883643;29;20425;-79
2023/05/30 11:25:44;;;;;;;81.93;8.23;;;21.40;1.00;;;;;;4883290;29;20425;-79
2023/05/30 11:28:16;;;;;;;74.37;7.00;;;21.50;1.00;;;;;;4882979;29;20552;-79
2023/05/30 11:30:56;;;;;;;73.67;8.63;;;21.80;1.00;;;;;;4884699;29;20518;-79
2023/05/30 11:33:24;;;;;;;75.60;7.97;;;22.20;1.00;;;;;;4883739;29;20756;-79
2023/05/30 11:35:50;;;;;;;81.50;17.83;;;22.40;1.00;;;;;;4883385;29;20440;-79
2023/05/30 11:38:21;;;;;;;77.23;14.40;;;22.20;1.00;;;;;;4883427;29;20407;-79
2023/05/30 11:40:47;;;;;;;74.37;8.63;;;22.50;1.00;;;;;;4881906;29;20167;-79
2023/05/30 11:43:16;;;;;;;78.23;14.90;;;22.70;1.00;;;;;;4883507;29;20494;-79
2023/05/30 11:45:45;;;;;;;81.03;17.00;;;22.50;1.00;;;;;;4882997;29;20514;-79
2023/05/30 11:48:11;;;;;;;76.97;17.90;;;22.30;1.00;;;;;;4881657;29;20456;-79
2023/05/30 11:50:41;;;;;;;78.50;11.97;;;22.40;1.00;;;;;;4882543;29;20550;-79
2023/05/30 11:53:17;;;;;;;78.63;15.80;;;22.20;1.00;;;;;;4884262;29;20502;-79
2023/05/30 11:55:46;;;;;;;77.90;16.40;;;22.10;1.00;;;;;;4881976;29;20399;-79
2023/05/30 11:58:17;;;;;;;78.90;17.97;;;22.30;1.00;;;;;;4884056;29;20412;-80
2023/05/30 12:00:43;;;;;;;80.57;17.97;;;22.40;1.00;;;;;;4884491;29;20888;-80
2023/05/30 12:03:19;;;;;;;77.67;15.27;;;22.40;1.00;;;;;;4882057;29;20862;-82
2023/05/30 12:05:46;;;;;;;82.53;19.90;;;22.40;1.00;;;;;;4883384;29;20503;-80
2023/05/30 12:08:16;;;;;;;79.40;16.90;;;22.30;1.00;;;;;;4883769;29;20411;-80
2023/05/30 12:10:44;;;;;;;85.10;22.30;;;22.20;1.00;;;;;;4882428;29;20465;-80
2023/05/30 12:13:10;;;;;;;76.40;18.67;;;22.30;1.00;;;;;;4882174;29;20415;-81
2023/05/30 12:15:36;;;;;;;77.00;20.20;;;21.70;1.00;;;;;;4883461;29;20414;-81
2023/05/30 12:18:02;;;;;;;79.47;15.90;;;21.60;1.00;;;;;;4882676;29;20532;-80
2023/05/30 12:20:28;;;;;;;77.53;12.67;;;21.80;1.00;;;;;;4881930;29;20464;-81
2023/05/30 12:22:54;;;;;;;83.93;12.77;;;22.10;1.00;;;;;;4881972;29;20419;-82
2023/05/30 12:25:26;;;;;;;72.37;9.20;;;22.00;1.00;;;;;;4883505;29;20174;-83
2023/05/30 12:27:54;;;;;;;73.87;12.80;;;21.80;1.00;;;;;;4884207;29;20202;-83
2023/05/30 12:30:20;;;;;;;77.50;8.47;;;21.70;1.00;;;;;;4885272;29;20512;-84
2023/05/30 12:32:46;;;;;;;80.87;9.57;;;21.90;1.00;;;;;;4886784;29;20407;-83
2023/05/30 12:35:13;;;;;;;73.10;6.77;;;21.90;1.00;;;;;;4886041;29;20435;-84
2023/05/30 12:37:39;;;;;;;71.90;6.73;;;22.10;1.00;;;;;;4886155;29;20564;-84
2023/05/30 12:40:06;;;;;;;72.93;5.00;;;22.10;1.00;;;;;;4885184;29;20411;-84
2023/05/30 12:42:33;;;;;;;70.90;5.10;;;22.20;1.00;;;;;;4882706;29;20922;-83
2023/05/30 12:45:06;;;;;;;72.40;5.70;;;21.90;1.00;;;;;;4882910;29;20434;-83
2023/05/30 12:47:33;;;;;;;74.33;5.30;;;22.00;1.00;;;;;;4881694;29;20447;-83